sensor_id;sensor_type;location;lat;lon;timestamp;P1;durP1;ratioP1;P2;durP2;ratioP2
18449;SDS011;9354;50.194;7.690;2023-04-06T00:01:08;10.73;;;5.77;;
18449;SDS011;9354;50.194;7.690;2023-04-06T00:03:35;10.90;;;5.57;;
18449;SDS011;9354;50.194;7.690;2023-04-06T00:06:03;12.43;;;5.53;;
18449;SDS011;9354;50.194;7.690;2023-04-06T00:08:31;14.70;;;5.90;;
18449;SDS011;9354;50.194;7.690;2023-04-06T00:10:59;10.50;;;5.33;;
18449;SDS011;9354;50.194;7.690;2023-04-06T00:13:26;11.17;;;5.10;;
18449;SDS011;9354;50.194;7.690;2023-04-06T00:15:54;11.20;;;5.30;;
18449;SDS011;9354;50.194;7.690;2023-04-06T00:18:22;12.70;;;5.60;;
18449;SDS011;9354;50.194;7.690;2023-04-06T00:20:50;12.70;;;5.23;;
18449;SDS011;9354;50.194;7.690;2023-04-06T00:23:21;10.70;;;5.30;;
18449;SDS011;9354;50.194;7.690;2023-04-06T00:25:48;8.40;;;4.63;;
18449;SDS011;9354;50.194;7.690;2023-04-06T00:28:16;13.07;;;5.40;;
18449;SDS011;9354;50.194;7.690;2023-04-06T00:30:47;10.20;;;4.73;;
18449;SDS011;9354;50.194;7.690;2023-04-06T00:33:14;14.73;;;5.47;;
18449;SDS011;9354;50.194;7.690;2023-04-06T00:35:43;10.47;;;4.60;;
18449;SDS011;9354;50.194;7.690;2023-04-06T00:38:11;8.57;;;5.40;;
18449;SDS011;9354;50.194;7.690;2023-04-06T00:40:38;9.60;;;4.70;;
18449;SDS011;9354;50.194;7.690;2023-04-06T00:43:06;9.33;;;4.70;;
18449;SDS011;9354;50.194;7.690;2023-04-06T00:45:34;10.63;;;5.13;;
18449;SDS011;9354;50.194;7.690;2023-04-06T00:48:02;8.77;;;4.50;;
18449;SDS011;9354;50.194;7.690;2023-04-06T00:50:30;11.53;;;5.10;;
18449;SDS011;9354;50.194;7.690;2023-04-06T00:52:59;14.27;;;5.00;;
18449;SDS011;9354;50.194;7.690;2023-04-06T00:55:27;8.00;;;4.50;;
18449;SDS011;9354;50.194;7.690;2023-04-06T00:57:55;11.90;;;4.43;;
18449;SDS011;9354;50.194;7.690;2023-04-06T01:00:25;12.00;;;5.23;;
18449;SDS011;9354;50.194;7.690;2023-04-06T01:02:52;10.57;;;4.60;;
18449;SDS011;9354;50.194;7.690;2023-04-06T01:05:20;9.10;;;4.60;;
18449;SDS011;9354;50.194;7.690;2023-04-06T01:07:47;11.63;;;4.90;;
18449;SDS011;9354;50.194;7.690;2023-04-06T01:10:23;9.57;;;5.10;;
18449;SDS011;9354;50.194;7.690;2023-04-06T01:12:51;10.30;;;5.10;;
18449;SDS011;9354;50.194;7.690;2023-04-06T01:15:19;8.23;;;5.00;;
18449;SDS011;9354;50.194;7.690;2023-04-06T01:17:47;12.37;;;4.70;;
18449;SDS011;9354;50.194;7.690;2023-04-06T01:20:14;10.57;;;5.03;;
18449;SDS011;9354;50.194;7.690;2023-04-06T01:22:43;10.47;;;5.17;;
18449;SDS011;9354;50.194;7.690;2023-04-06T01:25:11;9.23;;;4.73;;
18449;SDS011;9354;50.194;7.690;2023-04-06T01:27:38;12.27;;;5.57;;
18449;SDS011;9354;50.194;7.690;2023-04-06T01:30:06;9.70;;;4.80;;
18449;SDS011;9354;50.194;7.690;2023-04-06T01:32:34;8.00;;;4.97;;
18449;SDS011;9354;50.194;7.690;2023-04-06T01:35:02;8.87;;;4.10;;
18449;SDS011;9354;50.194;7.690;2023-04-06T01:37:29;11.50;;;4.97;;
18449;SDS011;9354;50.194;7.690;2023-04-06T01:39:59;10.47;;;5.00;;
18449;SDS011;9354;50.194;7.690;2023-04-06T01:42:27;10.10;;;4.83;;
18449;SDS011;9354;50.194;7.690;2023-04-06T01:44:55;15.67;;;5.30;;
18449;SDS011;9354;50.194;7.690;2023-04-06T01:47:23;10.23;;;5.10;;
18449;SDS011;9354;50.194;7.690;2023-04-06T01:49:50;11.07;;;4.80;;
18449;SDS011;9354;50.194;7.690;2023-04-06T01:52:18;11.97;;;5.03;;
18449;SDS011;9354;50.194;7.690;2023-04-06T01:54:46;13.23;;;5.30;;
18449;SDS011;9354;50.194;7.690;2023-04-06T01:57:15;12.03;;;5.30;;
18449;SDS011;9354;50.194;7.690;2023-04-06T01:59:42;11.63;;;5.17;;
18449;SDS011;9354;50.194;7.690;2023-04-06T02:02:10;9.23;;;5.10;;
18449;SDS011;9354;50.194;7.690;2023-04-06T02:04:38;9.63;;;4.87;;
18449;SDS011;9354;50.194;7.690;2023-04-06T02:07:05;9.67;;;4.83;;
18449;SDS011;9354;50.194;7.690;2023-04-06T02:09:33;9.93;;;4.67;;
18449;SDS011;9354;50.194;7.690;2023-04-06T02:12:00;10.97;;;4.83;;
18449;SDS011;9354;50.194;7.690;2023-04-06T02:14:29;9.67;;;4.63;;
18449;SDS011;9354;50.194;7.690;2023-04-06T02:16:57;11.10;;;5.43;;
18449;SDS011;9354;50.194;7.690;2023-04-06T02:19:24;11.47;;;4.80;;
18449;SDS011;9354;50.194;7.690;2023-04-06T02:21:52;8.00;;;4.83;;
18449;SDS011;9354;50.194;7.690;2023-04-06T02:24:19;10.90;;;4.93;;
18449;SDS011;9354;50.194;7.690;2023-04-06T02:26:47;10.40;;;5.27;;
18449;SDS011;9354;50.194;7.690;2023-04-06T02:29:14;8.10;;;4.73;;
18449;SDS011;9354;50.194;7.690;2023-04-06T02:31:43;10.23;;;5.10;;
18449;SDS011;9354;50.194;7.690;2023-04-06T02:34:11;11.90;;;5.20;;
18449;SDS011;9354;50.194;7.690;2023-04-06T02:36:43;12.40;;;5.57;;
18449;SDS011;9354;50.194;7.690;2023-04-06T02:39:11;10.97;;;5.30;;
18449;SDS011;9354;50.194;7.690;2023-04-06T02:41:39;13.27;;;5.17;;
18449;SDS011;9354;50.194;7.690;2023-04-06T02:44:06;8.70;;;5.07;;
18449;SDS011;9354;50.194;7.690;2023-04-06T02:46:35;7.77;;;4.50;;
18449;SDS011;9354;50.194;7.690;2023-04-06T02:49:04;9.17;;;4.83;;
18449;SDS011;9354;50.194;7.690;2023-04-06T02:51:32;9.00;;;4.60;;
18449;SDS011;9354;50.194;7.690;2023-04-06T02:53:59;11.63;;;5.33;;
18449;SDS011;9354;50.194;7.690;2023-04-06T02:56:27;13.17;;;5.40;;
18449;SDS011;9354;50.194;7.690;2023-04-06T02:58:54;8.93;;;4.90;;
18449;SDS011;9354;50.194;7.690;2023-04-06T03:01:22;9.67;;;5.37;;
18449;SDS011;9354;50.194;7.690;2023-04-06T03:03:49;10.07;;;4.63;;
18449;SDS011;9354;50.194;7.690;2023-04-06T03:06:18;8.23;;;4.30;;
18449;SDS011;9354;50.194;7.690;2023-04-06T03:08:45;12.30;;;5.67;;
18449;SDS011;9354;50.194;7.690;2023-04-06T03:11:13;10.53;;;5.33;;
18449;SDS011;9354;50.194;7.690;2023-04-06T03:13:40;11.17;;;5.27;;
18449;SDS011;9354;50.194;7.690;2023-04-06T03:16:08;9.57;;;4.70;;
18449;SDS011;9354;50.194;7.690;2023-04-06T03:18:35;9.70;;;4.73;;
18449;SDS011;9354;50.194;7.690;2023-04-06T03:21:03;11.33;;;5.30;;
18449;SDS011;9354;50.194;7.690;2023-04-06T03:23:32;8.17;;;4.33;;
18449;SDS011;9354;50.194;7.690;2023-04-06T03:26:00;9.40;;;4.83;;
18449;SDS011;9354;50.194;7.690;2023-04-06T03:28:28;10.47;;;4.67;;
18449;SDS011;9354;50.194;7.690;2023-04-06T03:30:55;9.80;;;4.83;;
18449;SDS011;9354;50.194;7.690;2023-04-06T03:33:23;10.50;;;4.77;;
18449;SDS011;9354;50.194;7.690;2023-04-06T03:35:52;8.50;;;4.20;;
18449;SDS011;9354;50.194;7.690;2023-04-06T03:38:20;7.83;;;4.53;;
18449;SDS011;9354;50.194;7.690;2023-04-06T03:40:49;7.70;;;4.27;;
18449;SDS011;9354;50.194;7.690;2023-04-06T03:43:16;9.27;;;4.47;;
18449;SDS011;9354;50.194;7.690;2023-04-06T03:45:44;7.63;;;4.27;;
18449;SDS011;9354;50.194;7.690;2023-04-06T03:48:11;8.03;;;4.30;;
18449;SDS011;9354;50.194;7.690;2023-04-06T03:50:38;7.67;;;4.03;;
18449;SDS011;9354;50.194;7.690;2023-04-06T03:53:06;7.63;;;4.20;;
18449;SDS011;9354;50.194;7.690;2023-04-06T03:55:34;12.80;;;4.67;;
18449;SDS011;9354;50.194;7.690;2023-04-06T03:58:03;10.63;;;4.83;;
18449;SDS011;9354;50.194;7.690;2023-04-06T04:00:30;9.00;;;4.80;;
18449;SDS011;9354;50.194;7.690;2023-04-06T04:02:58;9.30;;;5.20;;
18449;SDS011;9354;50.194;7.690;2023-04-06T04:05:27;10.70;;;4.90;;
18449;SDS011;9354;50.194;7.690;2023-04-06T04:07:54;12.83;;;5.23;;
18449;SDS011;9354;50.194;7.690;2023-04-06T04:10:22;11.17;;;4.83;;
18449;SDS011;9354;50.194;7.690;2023-04-06T04:12:49;9.67;;;4.97;;
18449;SDS011;9354;50.194;7.690;2023-04-06T04:15:18;11.27;;;4.70;;
18449;SDS011;9354;50.194;7.690;2023-04-06T04:17:46;9.47;;;5.33;;
18449;SDS011;9354;50.194;7.690;2023-04-06T04:20:14;11.77;;;5.53;;
18449;SDS011;9354;50.194;7.690;2023-04-06T04:22:42;8.23;;;5.10;;
18449;SDS011;9354;50.194;7.690;2023-04-06T04:25:09;12.37;;;5.53;;
18449;SDS011;9354;50.194;7.690;2023-04-06T04:27:37;10.47;;;5.83;;
18449;SDS011;9354;50.194;7.690;2023-04-06T04:30:05;12.80;;;5.97;;
18449;SDS011;9354;50.194;7.690;2023-04-06T04:32:35;11.33;;;6.00;;
18449;SDS011;9354;50.194;7.690;2023-04-06T04:35:02;13.17;;;5.77;;
18449;SDS011;9354;50.194;7.690;2023-04-06T04:37:30;13.03;;;5.80;;
18449;SDS011;9354;50.194;7.690;2023-04-06T04:39:57;12.87;;;5.63;;
18449;SDS011;9354;50.194;7.690;2023-04-06T04:42:25;9.70;;;5.30;;
18449;SDS011;9354;50.194;7.690;2023-04-06T04:44:54;10.57;;;5.70;;
18449;SDS011;9354;50.194;7.690;2023-04-06T04:47:21;12.03;;;5.87;;
18449;SDS011;9354;50.194;7.690;2023-04-06T04:49:50;11.33;;;5.67;;
18449;SDS011;9354;50.194;7.690;2023-04-06T04:52:18;10.60;;;5.60;;
18449;SDS011;9354;50.194;7.690;2023-04-06T04:54:45;13.07;;;5.43;;
18449;SDS011;9354;50.194;7.690;2023-04-06T04:57:13;8.77;;;4.87;;
18449;SDS011;9354;50.194;7.690;2023-04-06T04:59:42;11.57;;;5.40;;
18449;SDS011;9354;50.194;7.690;2023-04-06T05:02:10;14.63;;;5.40;;
18449;SDS011;9354;50.194;7.690;2023-04-06T05:04:37;11.83;;;5.30;;
18449;SDS011;9354;50.194;7.690;2023-04-06T05:07:06;8.57;;;5.00;;
18449;SDS011;9354;50.194;7.690;2023-04-06T05:09:35;10.77;;;5.60;;
18449;SDS011;9354;50.194;7.690;2023-04-06T05:12:02;11.40;;;5.23;;
18449;SDS011;9354;50.194;7.690;2023-04-06T05:14:30;11.67;;;5.67;;
18449;SDS011;9354;50.194;7.690;2023-04-06T05:16:57;11.30;;;5.50;;
18449;SDS011;9354;50.194;7.690;2023-04-06T05:19:25;11.03;;;5.13;;
18449;SDS011;9354;50.194;7.690;2023-04-06T05:21:53;10.17;;;5.67;;
18449;SDS011;9354;50.194;7.690;2023-04-06T05:24:21;12.30;;;5.90;;
18449;SDS011;9354;50.194;7.690;2023-04-06T05:26:49;11.60;;;5.60;;
18449;SDS011;9354;50.194;7.690;2023-04-06T05:29:16;10.47;;;5.33;;
18449;SDS011;9354;50.194;7.690;2023-04-06T05:31:45;11.23;;;5.37;;
18449;SDS011;9354;50.194;7.690;2023-04-06T05:34:13;13.03;;;5.47;;
18449;SDS011;9354;50.194;7.690;2023-04-06T05:36:40;13.70;;;5.80;;
18449;SDS011;9354;50.194;7.690;2023-04-06T05:39:08;9.23;;;4.80;;
18449;SDS011;9354;50.194;7.690;2023-04-06T05:41:37;11.57;;;5.53;;
18449;SDS011;9354;50.194;7.690;2023-04-06T05:44:04;12.50;;;6.37;;
18449;SDS011;9354;50.194;7.690;2023-04-06T05:46:32;12.43;;;6.17;;
18449;SDS011;9354;50.194;7.690;2023-04-06T05:48:59;11.47;;;5.93;;
18449;SDS011;9354;50.194;7.690;2023-04-06T05:51:27;12.20;;;6.03;;
18449;SDS011;9354;50.194;7.690;2023-04-06T05:53:54;10.30;;;5.50;;
18449;SDS011;9354;50.194;7.690;2023-04-06T05:56:23;12.33;;;5.73;;
18449;SDS011;9354;50.194;7.690;2023-04-06T05:58:52;9.63;;;5.50;;
18449;SDS011;9354;50.194;7.690;2023-04-06T06:01:19;11.83;;;5.93;;
18449;SDS011;9354;50.194;7.690;2023-04-06T06:03:47;13.63;;;5.90;;
18449;SDS011;9354;50.194;7.690;2023-04-06T06:06:14;12.30;;;6.17;;
18449;SDS011;9354;50.194;7.690;2023-04-06T06:08:42;10.90;;;6.47;;
18449;SDS011;9354;50.194;7.690;2023-04-06T06:11:09;13.37;;;6.23;;
18449;SDS011;9354;50.194;7.690;2023-04-06T06:13:37;15.00;;;6.83;;
18449;SDS011;9354;50.194;7.690;2023-04-06T06:16:06;13.27;;;6.47;;
18449;SDS011;9354;50.194;7.690;2023-04-06T06:18:33;12.73;;;6.77;;
18449;SDS011;9354;50.194;7.690;2023-04-06T06:21:02;10.83;;;6.07;;
18449;SDS011;9354;50.194;7.690;2023-04-06T06:23:29;12.20;;;6.60;;
18449;SDS011;9354;50.194;7.690;2023-04-06T06:25:57;10.43;;;5.53;;
18449;SDS011;9354;50.194;7.690;2023-04-06T06:28:24;10.20;;;5.73;;
18449;SDS011;9354;50.194;7.690;2023-04-06T06:30:52;11.00;;;5.27;;
18449;SDS011;9354;50.194;7.690;2023-04-06T06:33:21;10.60;;;5.53;;
18449;SDS011;9354;50.194;7.690;2023-04-06T06:35:49;9.73;;;5.73;;
18449;SDS011;9354;50.194;7.690;2023-04-06T06:38:16;11.97;;;5.60;;
18449;SDS011;9354;50.194;7.690;2023-04-06T06:40:44;12.80;;;5.83;;
18449;SDS011;9354;50.194;7.690;2023-04-06T06:43:12;11.27;;;6.00;;
18449;SDS011;9354;50.194;7.690;2023-04-06T06:45:40;15.37;;;7.20;;
18449;SDS011;9354;50.194;7.690;2023-04-06T06:48:08;11.50;;;6.30;;
18449;SDS011;9354;50.194;7.690;2023-04-06T06:50:37;12.20;;;5.80;;
18449;SDS011;9354;50.194;7.690;2023-04-06T06:53:04;11.27;;;6.60;;
18449;SDS011;9354;50.194;7.690;2023-04-06T06:55:32;14.43;;;6.30;;
18449;SDS011;9354;50.194;7.690;2023-04-06T06:57:59;11.83;;;5.87;;
18449;SDS011;9354;50.194;7.690;2023-04-06T07:00:26;12.00;;;5.77;;
18449;SDS011;9354;50.194;7.690;2023-04-06T07:02:54;13.77;;;6.33;;
18449;SDS011;9354;50.194;7.690;2023-04-06T07:05:21;11.20;;;6.07;;
18449;SDS011;9354;50.194;7.690;2023-04-06T07:07:50;13.73;;;6.80;;
18449;SDS011;9354;50.194;7.690;2023-04-06T07:10:18;13.33;;;6.23;;
18449;SDS011;9354;50.194;7.690;2023-04-06T07:12:45;12.90;;;5.30;;
18449;SDS011;9354;50.194;7.690;2023-04-06T07:15:13;12.43;;;5.80;;
18449;SDS011;9354;50.194;7.690;2023-04-06T07:17:41;10.63;;;6.13;;
18449;SDS011;9354;50.194;7.690;2023-04-06T07:20:10;13.30;;;6.67;;
18449;SDS011;9354;50.194;7.690;2023-04-06T07:22:38;11.97;;;5.93;;
18449;SDS011;9354;50.194;7.690;2023-04-06T07:25:08;12.10;;;6.33;;
18449;SDS011;9354;50.194;7.690;2023-04-06T07:27:35;13.47;;;6.50;;
18449;SDS011;9354;50.194;7.690;2023-04-06T07:30:03;12.07;;;5.93;;
18449;SDS011;9354;50.194;7.690;2023-04-06T07:32:32;12.00;;;6.50;;
18449;SDS011;9354;50.194;7.690;2023-04-06T07:35:00;10.50;;;5.43;;
18449;SDS011;9354;50.194;7.690;2023-04-06T07:37:27;11.73;;;6.37;;
18449;SDS011;9354;50.194;7.690;2023-04-06T07:39:55;13.13;;;6.23;;
18449;SDS011;9354;50.194;7.690;2023-04-06T07:42:24;15.93;;;6.20;;
18449;SDS011;9354;50.194;7.690;2023-04-06T07:44:51;12.60;;;6.33;;
18449;SDS011;9354;50.194;7.690;2023-04-06T07:47:19;13.93;;;5.63;;
18449;SDS011;9354;50.194;7.690;2023-04-06T07:49:46;11.93;;;6.60;;
18449;SDS011;9354;50.194;7.690;2023-04-06T07:52:14;13.03;;;6.20;;
18449;SDS011;9354;50.194;7.690;2023-04-06T07:54:41;11.60;;;5.60;;
18449;SDS011;9354;50.194;7.690;2023-04-06T07:57:09;13.13;;;5.77;;
18449;SDS011;9354;50.194;7.690;2023-04-06T07:59:38;11.37;;;5.87;;
18449;SDS011;9354;50.194;7.690;2023-04-06T08:02:06;13.47;;;6.20;;
18449;SDS011;9354;50.194;7.690;2023-04-06T08:04:33;12.03;;;6.93;;
18449;SDS011;9354;50.194;7.690;2023-04-06T08:07:01;13.30;;;6.07;;
18449;SDS011;9354;50.194;7.690;2023-04-06T08:09:29;13.60;;;5.90;;
18449;SDS011;9354;50.194;7.690;2023-04-06T08:11:56;13.43;;;6.43;;
18449;SDS011;9354;50.194;7.690;2023-04-06T08:14:24;14.03;;;6.10;;
18449;SDS011;9354;50.194;7.690;2023-04-06T08:16:53;14.30;;;5.93;;
18449;SDS011;9354;50.194;7.690;2023-04-06T08:19:20;12.63;;;5.70;;
18449;SDS011;9354;50.194;7.690;2023-04-06T08:21:48;12.53;;;5.73;;
18449;SDS011;9354;50.194;7.690;2023-04-06T08:24:16;12.50;;;5.70;;
18449;SDS011;9354;50.194;7.690;2023-04-06T08:26:44;14.40;;;6.47;;
18449;SDS011;9354;50.194;7.690;2023-04-06T08:29:11;11.67;;;5.67;;
18449;SDS011;9354;50.194;7.690;2023-04-06T08:31:39;12.47;;;5.90;;
18449;SDS011;9354;50.194;7.690;2023-04-06T08:34:08;10.77;;;5.13;;
18449;SDS011;9354;50.194;7.690;2023-04-06T08:36:35;11.07;;;5.50;;
18449;SDS011;9354;50.194;7.690;2023-04-06T08:39:03;11.20;;;5.83;;
18449;SDS011;9354;50.194;7.690;2023-04-06T08:41:33;14.37;;;5.53;;
18449;SDS011;9354;50.194;7.690;2023-04-06T08:44:02;13.90;;;6.17;;
18449;SDS011;9354;50.194;7.690;2023-04-06T08:46:30;14.17;;;6.03;;
18449;SDS011;9354;50.194;7.690;2023-04-06T08:48:58;14.13;;;6.23;;
18449;SDS011;9354;50.194;7.690;2023-04-06T08:51:29;12.40;;;6.27;;
18449;SDS011;9354;50.194;7.690;2023-04-06T08:53:57;15.57;;;6.07;;
18449;SDS011;9354;50.194;7.690;2023-04-06T08:56:26;16.73;;;6.00;;
18449;SDS011;9354;50.194;7.690;2023-04-06T08:58:55;13.63;;;6.23;;
18449;SDS011;9354;50.194;7.690;2023-04-06T09:01:25;15.43;;;6.30;;
18449;SDS011;9354;50.194;7.690;2023-04-06T09:03:55;14.27;;;5.90;;
18449;SDS011;9354;50.194;7.690;2023-04-06T09:06:24;13.93;;;6.40;;
18449;SDS011;9354;50.194;7.690;2023-04-06T09:08:54;20.23;;;7.23;;
18449;SDS011;9354;50.194;7.690;2023-04-06T09:11:22;16.47;;;6.93;;
18449;SDS011;9354;50.194;7.690;2023-04-06T09:13:50;16.30;;;6.73;;
18449;SDS011;9354;50.194;7.690;2023-04-06T09:16:18;13.00;;;5.70;;
18449;SDS011;9354;50.194;7.690;2023-04-06T09:18:46;19.50;;;7.20;;
18449;SDS011;9354;50.194;7.690;2023-04-06T09:21:16;14.33;;;6.43;;
18449;SDS011;9354;50.194;7.690;2023-04-06T09:23:44;13.77;;;6.57;;
18449;SDS011;9354;50.194;7.690;2023-04-06T09:26:15;15.23;;;6.80;;
18449;SDS011;9354;50.194;7.690;2023-04-06T09:28:44;16.47;;;6.90;;
18449;SDS011;9354;50.194;7.690;2023-04-06T09:31:13;14.33;;;6.87;;
18449;SDS011;9354;50.194;7.690;2023-04-06T09:33:41;14.57;;;6.67;;
18449;SDS011;9354;50.194;7.690;2023-04-06T09:36:10;15.60;;;6.30;;
18449;SDS011;9354;50.194;7.690;2023-04-06T09:38:51;14.73;;;6.07;;
18449;SDS011;9354;50.194;7.690;2023-04-06T09:41:24;15.03;;;6.17;;
18449;SDS011;9354;50.194;7.690;2023-04-06T09:44:01;13.80;;;6.50;;
18449;SDS011;9354;50.194;7.690;2023-04-06T09:46:30;15.23;;;5.47;;
18449;SDS011;9354;50.194;7.690;2023-04-06T09:49:00;19.33;;;5.83;;
18449;SDS011;9354;50.194;7.690;2023-04-06T09:51:30;17.20;;;5.67;;
18449;SDS011;9354;50.194;7.690;2023-04-06T09:54:02;15.40;;;6.40;;
18449;SDS011;9354;50.194;7.690;2023-04-06T09:56:33;15.03;;;6.37;;
18449;SDS011;9354;50.194;7.690;2023-04-06T09:59:08;12.43;;;5.73;;
18449;SDS011;9354;50.194;7.690;2023-04-06T10:01:39;12.37;;;5.33;;
18449;SDS011;9354;50.194;7.690;2023-04-06T10:04:13;11.77;;;5.90;;
18449;SDS011;9354;50.194;7.690;2023-04-06T10:06:52;10.60;;;5.43;;
18449;SDS011;9354;50.194;7.690;2023-04-06T10:09:22;13.93;;;6.07;;
18449;SDS011;9354;50.194;7.690;2023-04-06T10:11:53;14.47;;;5.93;;
18449;SDS011;9354;50.194;7.690;2023-04-06T10:14:21;13.07;;;6.00;;
18449;SDS011;9354;50.194;7.690;2023-04-06T10:16:50;15.57;;;6.07;;
18449;SDS011;9354;50.194;7.690;2023-04-06T10:19:18;11.27;;;5.40;;
18449;SDS011;9354;50.194;7.690;2023-04-06T10:21:53;11.87;;;5.13;;
18449;SDS011;9354;50.194;7.690;2023-04-06T10:24:23;16.13;;;6.00;;
18449;SDS011;9354;50.194;7.690;2023-04-06T10:26:58;13.27;;;5.80;;
18449;SDS011;9354;50.194;7.690;2023-04-06T10:29:40;10.73;;;5.57;;
18449;SDS011;9354;50.194;7.690;2023-04-06T10:32:09;12.37;;;6.20;;
18449;SDS011;9354;50.194;7.690;2023-04-06T10:34:37;13.83;;;5.97;;
18449;SDS011;9354;50.194;7.690;2023-04-06T10:37:11;12.77;;;6.03;;
18449;SDS011;9354;50.194;7.690;2023-04-06T10:39:47;11.90;;;5.40;;
18449;SDS011;9354;50.194;7.690;2023-04-06T10:42:24;11.43;;;5.27;;
18449;SDS011;9354;50.194;7.690;2023-04-06T10:45:04;14.13;;;6.23;;
18449;SDS011;9354;50.194;7.690;2023-04-06T10:47:38;11.47;;;6.13;;
18449;SDS011;9354;50.194;7.690;2023-04-06T10:50:07;14.00;;;6.30;;
18449;SDS011;9354;50.194;7.690;2023-04-06T10:52:34;13.67;;;6.37;;
18449;SDS011;9354;50.194;7.690;2023-04-06T10:55:02;11.30;;;5.90;;
18449;SDS011;9354;50.194;7.690;2023-04-06T10:57:33;14.63;;;6.73;;
18449;SDS011;9354;50.194;7.690;2023-04-06T11:00:03;12.83;;;6.00;;
18449;SDS011;9354;50.194;7.690;2023-04-06T11:02:31;13.23;;;5.80;;
18449;SDS011;9354;50.194;7.690;2023-04-06T11:04:58;11.53;;;5.43;;
18449;SDS011;9354;50.194;7.690;2023-04-06T11:07:27;13.60;;;6.80;;
18449;SDS011;9354;50.194;7.690;2023-04-06T11:09:55;14.10;;;6.00;;
18449;SDS011;9354;50.194;7.690;2023-04-06T11:12:23;13.27;;;5.90;;
18449;SDS011;9354;50.194;7.690;2023-04-06T11:14:53;11.80;;;5.07;;
18449;SDS011;9354;50.194;7.690;2023-04-06T11:17:26;11.13;;;5.50;;
18449;SDS011;9354;50.194;7.690;2023-04-06T11:19:54;13.33;;;5.83;;
18449;SDS011;9354;50.194;7.690;2023-04-06T11:22:22;10.47;;;5.33;;
18449;SDS011;9354;50.194;7.690;2023-04-06T11:24:50;9.83;;;5.10;;
18449;SDS011;9354;50.194;7.690;2023-04-06T11:27:18;9.03;;;5.47;;
18449;SDS011;9354;50.194;7.690;2023-04-06T11:29:46;10.03;;;4.70;;
18449;SDS011;9354;50.194;7.690;2023-04-06T11:32:22;10.70;;;5.13;;
18449;SDS011;9354;50.194;7.690;2023-04-06T11:34:50;10.03;;;4.63;;
18449;SDS011;9354;50.194;7.690;2023-04-06T11:37:17;11.33;;;5.90;;
18449;SDS011;9354;50.194;7.690;2023-04-06T11:39:47;10.33;;;5.03;;
18449;SDS011;9354;50.194;7.690;2023-04-06T11:42:22;12.20;;;5.10;;
18449;SDS011;9354;50.194;7.690;2023-04-06T11:44:50;11.07;;;5.20;;
18449;SDS011;9354;50.194;7.690;2023-04-06T11:47:20;11.30;;;5.47;;
18449;SDS011;9354;50.194;7.690;2023-04-06T11:49:56;11.00;;;5.37;;
18449;SDS011;9354;50.194;7.690;2023-04-06T11:52:31;9.70;;;4.93;;
18449;SDS011;9354;50.194;7.690;2023-04-06T11:55:09;10.43;;;5.70;;
18449;SDS011;9354;50.194;7.690;2023-04-06T11:57:37;8.20;;;4.70;;
18449;SDS011;9354;50.194;7.690;2023-04-06T12:00:05;10.47;;;4.80;;
18449;SDS011;9354;50.194;7.690;2023-04-06T12:02:36;10.20;;;4.90;;
18449;SDS011;9354;50.194;7.690;2023-04-06T12:05:04;7.07;;;4.23;;
18449;SDS011;9354;50.194;7.690;2023-04-06T12:07:33;13.17;;;5.03;;
18449;SDS011;9354;50.194;7.690;2023-04-06T12:10:02;10.20;;;4.90;;
18449;SDS011;9354;50.194;7.690;2023-04-06T12:12:30;13.37;;;5.13;;
18449;SDS011;9354;50.194;7.690;2023-04-06T12:14:58;11.30;;;4.83;;
18449;SDS011;9354;50.194;7.690;2023-04-06T12:17:25;10.33;;;4.60;;
18449;SDS011;9354;50.194;7.690;2023-04-06T12:19:54;10.03;;;5.07;;
18449;SDS011;9354;50.194;7.690;2023-04-06T12:22:21;8.60;;;4.53;;
18449;SDS011;9354;50.194;7.690;2023-04-06T12:24:49;11.83;;;5.53;;
18449;SDS011;9354;50.194;7.690;2023-04-06T12:27:16;10.87;;;5.50;;
18449;SDS011;9354;50.194;7.690;2023-04-06T12:29:44;10.00;;;5.43;;
18449;SDS011;9354;50.194;7.690;2023-04-06T12:32:11;8.57;;;5.10;;
18449;SDS011;9354;50.194;7.690;2023-04-06T12:34:39;9.60;;;4.80;;
18449;SDS011;9354;50.194;7.690;2023-04-06T12:37:08;9.50;;;4.60;;
18449;SDS011;9354;50.194;7.690;2023-04-06T12:39:35;11.47;;;4.83;;
18449;SDS011;9354;50.194;7.690;2023-04-06T12:42:03;9.40;;;4.63;;
18449;SDS011;9354;50.194;7.690;2023-04-06T12:44:30;10.23;;;5.13;;
18449;SDS011;9354;50.194;7.690;2023-04-06T12:46:58;9.60;;;4.87;;
18449;SDS011;9354;50.194;7.690;2023-04-06T12:49:25;8.43;;;4.67;;
18449;SDS011;9354;50.194;7.690;2023-04-06T12:51:53;11.70;;;4.83;;
18449;SDS011;9354;50.194;7.690;2023-04-06T12:54:22;13.30;;;5.63;;
18449;SDS011;9354;50.194;7.690;2023-04-06T12:56:52;10.20;;;5.37;;
18449;SDS011;9354;50.194;7.690;2023-04-06T12:59:19;16.57;;;5.67;;
18449;SDS011;9354;50.194;7.690;2023-04-06T13:01:47;15.23;;;6.50;;
18449;SDS011;9354;50.194;7.690;2023-04-06T13:04:14;11.77;;;5.77;;
18449;SDS011;9354;50.194;7.690;2023-04-06T13:06:42;14.60;;;5.63;;
18449;SDS011;9354;50.194;7.690;2023-04-06T13:09:09;12.30;;;5.70;;
18449;SDS011;9354;50.194;7.690;2023-04-06T13:11:38;13.93;;;5.60;;
18449;SDS011;9354;50.194;7.690;2023-04-06T13:14:06;9.17;;;4.80;;
18449;SDS011;9354;50.194;7.690;2023-04-06T13:16:34;13.60;;;6.70;;
18449;SDS011;9354;50.194;7.690;2023-04-06T13:19:01;15.13;;;6.23;;
18449;SDS011;9354;50.194;7.690;2023-04-06T13:21:29;11.90;;;5.73;;
18449;SDS011;9354;50.194;7.690;2023-04-06T13:23:57;13.30;;;5.47;;
18449;SDS011;9354;50.194;7.690;2023-04-06T13:26:25;13.77;;;5.53;;
18449;SDS011;9354;50.194;7.690;2023-04-06T13:28:55;10.67;;;5.23;;
18449;SDS011;9354;50.194;7.690;2023-04-06T13:31:22;16.07;;;6.50;;
18449;SDS011;9354;50.194;7.690;2023-04-06T13:33:50;13.17;;;5.40;;
18449;SDS011;9354;50.194;7.690;2023-04-06T13:36:17;9.93;;;5.70;;
18449;SDS011;9354;50.194;7.690;2023-04-06T13:38:45;11.37;;;5.43;;
18449;SDS011;9354;50.194;7.690;2023-04-06T13:41:17;10.90;;;6.23;;
18449;SDS011;9354;50.194;7.690;2023-04-06T13:43:46;10.63;;;5.03;;
18449;SDS011;9354;50.194;7.690;2023-04-06T13:46:15;14.63;;;5.73;;
18449;SDS011;9354;50.194;7.690;2023-04-06T13:48:43;15.43;;;5.97;;
18449;SDS011;9354;50.194;7.690;2023-04-06T13:51:11;13.23;;;6.07;;
18449;SDS011;9354;50.194;7.690;2023-04-06T13:53:39;10.63;;;5.53;;
18449;SDS011;9354;50.194;7.690;2023-04-06T13:56:07;11.47;;;5.13;;
18449;SDS011;9354;50.194;7.690;2023-04-06T13:58:34;11.40;;;5.90;;
18449;SDS011;9354;50.194;7.690;2023-04-06T14:01:02;12.63;;;6.27;;
18449;SDS011;9354;50.194;7.690;2023-04-06T14:03:33;12.20;;;6.47;;
18449;SDS011;9354;50.194;7.690;2023-04-06T14:06:00;13.17;;;5.67;;
18449;SDS011;9354;50.194;7.690;2023-04-06T14:08:28;15.40;;;5.87;;
18449;SDS011;9354;50.194;7.690;2023-04-06T14:10:55;11.33;;;5.40;;
18449;SDS011;9354;50.194;7.690;2023-04-06T14:13:22;10.63;;;5.50;;
18449;SDS011;9354;50.194;7.690;2023-04-06T14:15:52;12.13;;;6.00;;
18449;SDS011;9354;50.194;7.690;2023-04-06T14:18:21;13.47;;;6.50;;
18449;SDS011;9354;50.194;7.690;2023-04-06T14:20:54;10.67;;;5.47;;
18449;SDS011;9354;50.194;7.690;2023-04-06T14:23:22;13.23;;;6.00;;
18449;SDS011;9354;50.194;7.690;2023-04-06T14:25:51;10.70;;;5.10;;
18449;SDS011;9354;50.194;7.690;2023-04-06T14:28:28;11.30;;;5.10;;
18449;SDS011;9354;50.194;7.690;2023-04-06T14:30:55;14.57;;;7.93;;
18449;SDS011;9354;50.194;7.690;2023-04-06T14:33:23;9.23;;;4.53;;
18449;SDS011;9354;50.194;7.690;2023-04-06T14:35:51;8.80;;;4.10;;
18449;SDS011;9354;50.194;7.690;2023-04-06T14:38:20;10.23;;;4.60;;
18449;SDS011;9354;50.194;7.690;2023-04-06T14:40:47;10.20;;;4.53;;
18449;SDS011;9354;50.194;7.690;2023-04-06T14:43:15;8.80;;;4.83;;
18449;SDS011;9354;50.194;7.690;2023-04-06T14:45:43;9.87;;;4.70;;
18449;SDS011;9354;50.194;7.690;2023-04-06T14:48:10;10.47;;;4.80;;
18449;SDS011;9354;50.194;7.690;2023-04-06T14:50:38;10.97;;;4.90;;
18449;SDS011;9354;50.194;7.690;2023-04-06T14:53:06;9.87;;;4.97;;
18449;SDS011;9354;50.194;7.690;2023-04-06T14:55:39;9.03;;;4.97;;
18449;SDS011;9354;50.194;7.690;2023-04-06T14:58:07;11.17;;;5.63;;